Vandiver, Alabama
Current Conditions -  °F | °C
As of 6:53 PM on Tuesday 25 Nov 2014 (Local Time) from KBHM Reporting Station
Overcast Overcast  
Wind Chill: 10°   Ceiling: 11000
Heat Index: 10°   Visibility: 10mi
Dew Point: -1°   Wind: 6mph
Humidity: 46%   Direction: 300°WNW
Pressure: 30.14"   Gusts: NA
Location:  33.47°N, 86.51°W
Report Text: KBHM 260053Z 30005KT 10SM OVC110 10/M01 A3014 RMK AO2 SLP207 T01001011
Loading
Personal Weather Stations






























Interactive Weather Map New forecast layout! Learn more

10-Day Weather Forecast

Advertisements
Track Severe Weather on mobile